Time;durP1;ratioP1;P1;durP2;ratioP2;P2;SDS_P1;SDS_P2;PMS_P1;PMS_P2;Temp;Humidity;BMP_temperature;BMP_pressure;BME280_temperature;BME280_humidity;BME280_pressure;Samples;Min_cycle;Max_cycle;Signal;HPM_P1;HPM_P2
2023/04/13 00:01:20;;;;;;;2.33;1.07;;;6.80;97.40;;;;;;5123721;28;20486;-65
2023/04/13 00:03:46;;;;;;;2.78;1.05;;;6.90;96.80;;;;;;5122644;28;20438;-65
2023/04/13 00:06:13;;;;;;;1.60;0.80;;;7.00;96.40;;;;;;5128176;28;20967;-66
2023/04/13 00:08:43;;;;;;;1.95;0.70;;;7.00;96.00;;;;;;5125285;28;20434;-66
2023/04/13 00:11:12;;;;;;;2.13;0.90;;;7.10;95.40;;;;;;5121539;28;20844;-66
2023/04/13 00:13:46;;;;;;;2.55;0.95;;;7.10;95.20;;;;;;5121771;28;20477;-65
2023/04/13 00:16:14;;;;;;;1.58;0.70;;;7.20;94.80;;;;;;5121614;27;20419;-65
2023/04/13 00:18:41;;;;;;;2.95;1.17;;;7.30;94.10;;;;;;5125098;27;20441;-65
2023/04/13 00:21:08;;;;;;;1.70;0.90;;;7.40;93.80;;;;;;5119432;27;20427;-65
2023/04/13 00:23:35;;;;;;;1.83;0.70;;;7.40;93.00;;;;;;5114057;22;20441;-66
2023/04/13 00:26:04;;;;;;;2.88;0.90;;;7.50;93.30;;;;;;5080964;28;20437;-66
2023/04/13 00:28:31;;;;;;;2.15;0.80;;;7.50;92.90;;;;;;5088981;28;20437;-66
2023/04/13 00:30:57;;;;;;;3.97;1.20;;;7.50;92.60;;;;;;5083679;28;20430;-66
2023/04/13 00:33:24;;;;;;;2.35;0.80;;;7.60;92.80;;;;;;5086713;28;20434;-67
2023/04/13 00:35:51;;;;;;;1.30;0.68;;;7.60;92.80;;;;;;5086638;28;20438;-66
2023/04/13 00:38:18;;;;;;;2.70;0.80;;;7.60;92.40;;;;;;5078002;28;20512;-66
2023/04/13 00:40:45;;;;;;;1.77;0.80;;;7.70;92.00;;;;;;5085988;28;20429;-66
2023/04/13 00:43:13;;;;;;;1.90;1.10;;;7.70;91.90;;;;;;5081569;28;20419;-66
2023/04/13 00:45:40;;;;;;;3.38;0.70;;;7.70;91.70;;;;;;5087440;28;20475;-66
2023/04/13 00:48:09;;;;;;;3.15;0.80;;;7.70;91.50;;;;;;5084515;28;20437;-67
2023/04/13 00:50:36;;;;;;;1.98;0.90;;;7.80;91.10;;;;;;5086534;28;20924;-67
2023/04/13 00:53:05;;;;;;;2.67;0.70;;;7.80;90.70;;;;;;5088647;28;20410;-67
2023/04/13 00:55:32;;;;;;;2.60;0.90;;;7.80;91.20;;;;;;5084332;28;20444;-65
2023/04/13 00:58:00;;;;;;;1.90;0.80;;;7.80;91.20;;;;;;5087898;28;20434;-65
2023/04/13 01:00:28;;;;;;;2.30;1.05;;;7.80;90.80;;;;;;5084074;28;20542;-65
2023/04/13 01:02:55;;;;;;;1.83;0.77;;;7.90;90.40;;;;;;5084160;28;20460;-65
2023/04/13 01:05:24;;;;;;;2.92;0.80;;;7.90;90.30;;;;;;5081795;28;20441;-65
2023/04/13 01:08:08;;;;;;;2.03;0.82;;;7.90;90.10;;;;;;5077631;28;20812;-65
2023/04/13 01:10:42;;;;;;;1.90;0.80;;;7.90;90.10;;;;;;5087337;28;20486;-65
2023/04/13 01:13:17;;;;;;;2.20;1.00;;;7.90;90.30;;;;;;5083162;28;20436;-65
2023/04/13 01:15:53;;;;;;;2.10;0.97;;;7.90;90.10;;;;;;5083297;28;20452;-65
2023/04/13 01:18:21;;;;;;;2.70;0.75;;;7.80;90.20;;;;;;5075941;28;20444;-65
2023/04/13 01:20:51;;;;;;;2.07;0.80;;;7.80;90.50;;;;;;5080900;28;20425;-65
2023/04/13 01:23:27;;;;;;;2.03;1.00;;;7.70;90.50;;;;;;5088036;28;20425;-65
2023/04/13 01:25:57;;;;;;;1.90;1.00;;;7.70;91.10;;;;;;5088127;28;20826;-65
2023/04/13 01:28:26;;;;;;;3.08;1.00;;;7.70;91.00;;;;;;5081859;28;20841;-65
2023/04/13 01:30:56;;;;;;;2.07;0.97;;;7.70;91.20;;;;;;5085417;28;20429;-64
2023/04/13 01:33:24;;;;;;;1.50;0.90;;;7.70;91.40;;;;;;5086276;28;20426;-65
2023/04/13 01:35:52;;;;;;;3.22;0.80;;;7.70;91.50;;;;;;5084458;28;20657;-66
2023/04/13 01:38:24;;;;;;;1.50;0.70;;;7.70;91.40;;;;;;5082778;28;20414;-65
2023/04/13 01:40:51;;;;;;;2.20;0.85;;;7.70;91.40;;;;;;5087738;28;20425;-66
2023/04/13 01:43:18;;;;;;;3.00;0.80;;;7.80;91.30;;;;;;5085817;28;20452;-65
2023/04/13 01:45:50;;;;;;;1.52;1.08;;;7.80;91.40;;;;;;5085362;28;20433;-65
2023/04/13 01:48:21;;;;;;;1.73;0.70;;;7.80;91.50;;;;;;5082480;28;21121;-66
2023/04/13 01:50:51;;;;;;;1.30;0.75;;;7.80;91.10;;;;;;5083706;28;20428;-65
2023/04/13 01:53:24;;;;;;;3.33;0.70;;;7.80;91.00;;;;;;5087357;28;20550;-65
2023/04/13 01:55:52;;;;;;;1.60;0.77;;;7.80;90.90;;;;;;5087953;28;20440;-66
2023/04/13 01:58:20;;;;;;;2.00;0.73;;;7.90;90.90;;;;;;5088477;28;20414;-65
2023/04/13 02:00:48;;;;;;;1.98;0.90;;;7.90;91.00;;;;;;5086776;28;20421;-65
2023/04/13 02:03:16;;;;;;;1.45;0.70;;;7.80;90.80;;;;;;5080023;28;20461;-65
2023/04/13 02:05:43;;;;;;;1.80;1.00;;;7.90;91.00;;;;;;5080850;28;20811;-65
2023/04/13 02:08:10;;;;;;;2.90;1.30;;;7.90;90.90;;;;;;5086229;28;20433;-65
2023/04/13 02:10:38;;;;;;;2.50;0.80;;;7.90;90.70;;;;;;5087540;28;20418;-65
2023/04/13 02:13:04;;;;;;;1.60;0.80;;;7.90;90.80;;;;;;5086722;28;20812;-65
2023/04/13 02:15:34;;;;;;;1.77;0.70;;;7.90;90.90;;;;;;5086808;28;20430;-69
2023/04/13 02:18:03;;;;;;;1.90;0.90;;;7.90;90.80;;;;;;5071769;28;20468;-65
2023/04/13 02:20:32;;;;;;;1.70;0.80;;;7.90;90.90;;;;;;5086729;28;20490;-65
2023/04/13 02:22:59;;;;;;;1.77;0.90;;;7.90;90.80;;;;;;5085477;28;20436;-65
2023/04/13 02:25:26;;;;;;;1.60;0.70;;;7.90;90.70;;;;;;5085888;28;20439;-65
2023/04/13 02:27:53;;;;;;;1.95;0.80;;;7.90;90.80;;;;;;5087085;28;20438;-66
2023/04/13 02:30:20;;;;;;;1.70;0.90;;;8.00;90.70;;;;;;5088488;28;20437;-65
2023/04/13 02:32:48;;;;;;;2.10;1.10;;;8.00;90.90;;;;;;5089994;28;20780;-65
2023/04/13 02:35:16;;;;;;;2.10;0.90;;;7.90;91.00;;;;;;5079902;28;20435;-65
2023/04/13 02:37:43;;;;;;;2.20;0.80;;;7.90;91.20;;;;;;5083665;28;20934;-65
2023/04/13 02:40:11;;;;;;;1.65;0.90;;;7.90;91.30;;;;;;5085547;28;20920;-65
2023/04/13 02:42:38;;;;;;;1.70;0.90;;;7.90;90.80;;;;;;5082790;28;20454;-65
2023/04/13 02:45:07;;;;;;;2.28;0.82;;;7.90;90.90;;;;;;5084242;28;20429;-65
2023/04/13 02:47:34;;;;;;;2.40;0.90;;;7.90;91.20;;;;;;5079707;28;20429;-65
2023/04/13 02:50:01;;;;;;;2.50;0.80;;;7.90;91.30;;;;;;5078223;28;20426;-65
2023/04/13 02:52:29;;;;;;;2.60;0.70;;;7.90;91.10;;;;;;5086875;28;20426;-65
2023/04/13 02:54:56;;;;;;;1.40;0.80;;;8.00;91.40;;;;;;5086809;28;20944;-65
2023/04/13 02:57:24;;;;;;;2.00;0.70;;;8.00;91.10;;;;;;5087318;28;20434;-66
2023/04/13 02:59:52;;;;;;;1.70;0.77;;;8.00;91.10;;;;;;5084622;28;20430;-65
2023/04/13 03:02:18;;;;;;;1.23;0.60;;;8.00;91.10;;;;;;5079583;28;20931;-65
2023/04/13 03:04:46;;;;;;;1.83;0.60;;;8.00;91.20;;;;;;5087784;28;20429;-65
2023/04/13 03:07:13;;;;;;;2.25;0.90;;;8.00;91.20;;;;;;5088326;28;20418;-65
2023/04/13 03:09:41;;;;;;;1.00;0.50;;;8.00;91.00;;;;;;5086229;28;20579;-65
2023/04/13 03:12:08;;;;;;;1.00;0.60;;;8.00;91.20;;;;;;5085050;28;20431;-65
2023/04/13 03:14:35;;;;;;;1.40;0.60;;;8.00;91.30;;;;;;5087015;28;20440;-65
2023/04/13 03:17:03;;;;;;;1.70;0.70;;;8.00;91.20;;;;;;5079393;28;20781;-65
2023/04/13 03:19:30;;;;;;;1.60;0.80;;;8.00;91.50;;;;;;5094164;28;20437;-65
2023/04/13 03:21:57;;;;;;;1.53;0.80;;;8.00;91.70;;;;;;5090246;28;20429;-65
2023/04/13 03:24:26;;;;;;;1.30;0.60;;;7.90;91.50;;;;;;5091716;28;20459;-65
2023/04/13 03:26:55;;;;;;;2.20;0.60;;;7.90;91.60;;;;;;5087151;28;20425;-65
2023/04/13 03:29:22;;;;;;;2.33;0.70;;;7.90;91.90;;;;;;5087853;28;21008;-65
2023/04/13 03:31:49;;;;;;;1.67;0.60;;;7.90;92.00;;;;;;5087321;28;20768;-65
2023/04/13 03:34:16;;;;;;;1.17;0.70;;;8.00;91.90;;;;;;5087285;28;20418;-65
2023/04/13 03:36:43;;;;;;;1.40;0.60;;;7.90;92.10;;;;;;5079544;28;20953;-65
2023/04/13 03:39:10;;;;;;;1.38;0.70;;;8.00;91.90;;;;;;5081313;28;20873;-65
2023/04/13 03:41:37;;;;;;;1.40;0.60;;;8.00;91.80;;;;;;5085740;28;20413;-65
2023/04/13 03:44:06;;;;;;;1.60;0.70;;;8.00;92.40;;;;;;5080447;28;20433;-64
2023/04/13 03:46:35;;;;;;;2.03;0.80;;;7.90;92.10;;;;;;5080607;28;20431;-65
2023/04/13 03:49:03;;;;;;;1.63;0.73;;;8.00;92.30;;;;;;5079834;28;20889;-65
2023/04/13 03:51:30;;;;;;;1.52;0.60;;;8.00;92.40;;;;;;5083959;28;20434;-65
2023/04/13 03:53:57;;;;;;;2.83;0.80;;;8.00;92.30;;;;;;5090323;28;20445;-65
2023/04/13 03:56:23;;;;;;;1.58;0.60;;;8.00;92.20;;;;;;5089220;28;20421;-65
2023/04/13 03:58:50;;;;;;;1.67;0.80;;;7.90;92.40;;;;;;5086049;28;20923;-66
2023/04/13 04:01:19;;;;;;;1.40;0.70;;;8.00;92.30;;;;;;5086466;28;20421;-65
2023/04/13 04:03:45;;;;;;;1.85;0.73;;;8.00;92.40;;;;;;5089275;28;20452;-66
2023/04/13 04:06:12;;;;;;;2.20;0.70;;;8.00;92.60;;;;;;5084203;28;20456;-65
2023/04/13 04:08:39;;;;;;;1.10;0.70;;;7.90;92.60;;;;;;5085897;28;20434;-66
2023/04/13 04:11:06;;;;;;;1.95;0.70;;;8.00;92.70;;;;;;5089134;28;20433;-66
2023/04/13 04:13:33;;;;;;;1.50;0.70;;;8.00;92.80;;;;;;5089747;28;20457;-65
2023/04/13 04:15:59;;;;;;;1.50;0.70;;;8.00;92.70;;;;;;5084891;28;20431;-68
2023/04/13 04:18:30;;;;;;;1.27;0.63;;;8.00;92.80;;;;;;5084555;28;20520;-68
2023/04/13 04:20:57;;;;;;;2.43;0.70;;;8.00;92.60;;;;;;5090624;28;20556;-67
2023/04/13 04:23:27;;;;;;;1.83;0.73;;;8.00;92.70;;;;;;5092985;28;20428;-68
2023/04/13 04:25:53;;;;;;;1.85;0.60;;;8.00;93.40;;;;;;5091413;28;20414;-67
2023/04/13 04:28:20;;;;;;;2.00;0.70;;;8.00;93.30;;;;;;5091115;28;20849;-67
2023/04/13 04:30:52;;;;;;;2.03;0.55;;;8.00;93.50;;;;;;5089261;28;20425;-67
2023/04/13 04:33:21;;;;;;;2.88;0.50;;;8.00;93.30;;;;;;5089657;28;20457;-66
2023/04/13 04:35:50;;;;;;;1.48;0.77;;;8.00;93.20;;;;;;5085963;28;20864;-67
2023/04/13 04:38:17;;;;;;;1.58;0.60;;;8.00;93.50;;;;;;5090245;28;20509;-67
2023/04/13 04:40:44;;;;;;;2.53;0.70;;;8.00;93.20;;;;;;5086747;28;20451;-68
2023/04/13 04:43:12;;;;;;;2.00;0.70;;;8.00;93.00;;;;;;5081401;28;20456;-69
2023/04/13 04:45:40;;;;;;;2.35;0.80;;;8.00;93.10;;;;;;5086446;28;20440;-69
2023/04/13 04:48:07;;;;;;;0.70;0.60;;;8.00;93.20;;;;;;5079599;28;20454;-69
2023/04/13 04:50:36;;;;;;;2.25;0.70;;;8.00;92.70;;;;;;5088458;28;20434;-69
2023/04/13 04:53:04;;;;;;;2.05;0.75;;;8.10;92.70;;;;;;5079397;28;20435;-69
2023/04/13 04:55:31;;;;;;;1.60;0.70;;;8.10;92.70;;;;;;5089134;28;20476;-69
2023/04/13 04:57:58;;;;;;;2.10;1.10;;;8.10;92.70;;;;;;5082193;28;20410;-69
2023/04/13 05:00:25;;;;;;;1.35;0.73;;;8.10;93.20;;;;;;5083449;28;20472;-68
2023/04/13 05:02:52;;;;;;;1.02;0.80;;;8.20;92.60;;;;;;5088277;28;20406;-69
2023/04/13 05:05:19;;;;;;;1.63;0.70;;;8.20;92.60;;;;;;5083383;28;20416;-68
2023/04/13 05:07:46;;;;;;;1.60;0.70;;;8.20;92.80;;;;;;5087664;28;20421;-69
2023/04/13 05:10:14;;;;;;;1.75;0.70;;;8.20;92.80;;;;;;5085659;28;20790;-69
2023/04/13 05:12:41;;;;;;;1.67;0.70;;;8.20;92.70;;;;;;5078888;28;20825;-68
2023/04/13 05:15:08;;;;;;;2.28;0.80;;;8.20;93.10;;;;;;5085907;28;20442;-67
2023/04/13 05:17:35;;;;;;;1.60;0.60;;;8.10;93.10;;;;;;5089332;28;20463;-68
2023/04/13 05:20:05;;;;;;;1.50;0.80;;;8.10;93.00;;;;;;5087008;28;20421;-67
2023/04/13 05:22:32;;;;;;;1.95;0.70;;;8.10;93.20;;;;;;5082573;28;20453;-67
2023/04/13 05:24:59;;;;;;;2.33;0.90;;;8.10;93.30;;;;;;5084608;28;20426;-70
2023/04/13 05:27:27;;;;;;;1.27;0.60;;;8.10;93.30;;;;;;5079458;28;20930;-69
2023/04/13 05:29:54;;;;;;;4.10;1.00;;;8.10;93.40;;;;;;5084392;28;20451;-68
2023/04/13 05:32:20;;;;;;;1.33;0.70;;;8.10;93.50;;;;;;5082161;28;20947;-69
2023/04/13 05:34:47;;;;;;;1.45;0.60;;;8.00;93.40;;;;;;5086284;28;20429;-69
2023/04/13 05:37:14;;;;;;;1.40;0.60;;;8.10;93.30;;;;;;5082367;28;20476;-69
2023/04/13 05:39:41;;;;;;;0.90;0.47;;;8.00;93.30;;;;;;5074438;28;20434;-69
2023/04/13 05:42:08;;;;;;;1.90;0.60;;;8.10;92.90;;;;;;5080726;28;20720;-68
2023/04/13 05:44:36;;;;;;;0.93;0.50;;;8.10;92.80;;;;;;5087593;28;20912;-67
2023/04/13 05:47:02;;;;;;;0.73;0.32;;;8.00;93.00;;;;;;5082741;28;20433;-68
2023/04/13 05:49:29;;;;;;;1.08;0.60;;;8.00;93.40;;;;;;5086005;28;20433;-67
2023/04/13 05:51:56;;;;;;;1.85;0.60;;;8.00;93.80;;;;;;5086775;28;20425;-67
2023/04/13 05:54:23;;;;;;;1.20;0.50;;;8.00;94.10;;;;;;5080793;28;20471;-67
2023/04/13 05:56:50;;;;;;;1.45;0.60;;;8.00;94.40;;;;;;5078321;28;20433;-67
2023/04/13 05:59:18;;;;;;;1.63;0.70;;;7.90;94.70;;;;;;5080299;28;20434;-67
2023/04/13 06:01:48;;;;;;;2.42;0.70;;;8.00;94.90;;;;;;5083519;28;20530;-66
2023/04/13 06:04:16;;;;;;;1.60;0.77;;;7.90;94.90;;;;;;5082747;28;20429;-66
2023/04/13 06:06:44;;;;;;;2.20;0.90;;;7.90;95.00;;;;;;5083006;28;20434;-67
2023/04/13 06:09:13;;;;;;;2.53;0.80;;;7.90;94.90;;;;;;5084739;28;21435;-68
2023/04/13 06:11:40;;;;;;;0.90;0.50;;;7.90;95.10;;;;;;5081996;28;20481;-68
2023/04/13 06:14:07;;;;;;;2.45;0.90;;;7.90;94.80;;;;;;5082025;28;20432;-67
2023/04/13 06:16:34;;;;;;;1.00;0.60;;;7.90;94.60;;;;;;5084266;28;20426;-69
2023/04/13 06:19:02;;;;;;;2.78;0.75;;;7.90;94.30;;;;;;5083884;28;20460;-70
2023/04/13 06:21:29;;;;;;;2.45;0.80;;;7.90;94.30;;;;;;5081449;28;20464;-68
2023/04/13 06:23:55;;;;;;;2.42;0.85;;;7.90;94.60;;;;;;5085514;28;20454;-68
2023/04/13 06:26:23;;;;;;;1.20;0.60;;;7.90;94.90;;;;;;5081527;28;20435;-69
2023/04/13 06:28:50;;;;;;;1.40;0.80;;;7.90;94.80;;;;;;5078767;28;20900;-68
2023/04/13 06:31:17;;;;;;;0.90;0.57;;;7.90;94.30;;;;;;5081941;22;20444;-67
2023/04/13 06:33:44;;;;;;;2.40;0.60;;;7.90;94.10;;;;;;5057154;28;20809;-67
2023/04/13 06:36:12;;;;;;;1.10;0.70;;;7.90;94.20;;;;;;5061282;28;20437;-69
2023/04/13 06:38:39;;;;;;;2.20;0.60;;;7.90;94.30;;;;;;5061268;28;20774;-67
2023/04/13 06:41:06;;;;;;;1.17;0.50;;;7.90;94.60;;;;;;5053875;28;20450;-67
2023/04/13 06:43:33;;;;;;;1.55;0.50;;;7.90;94.40;;;;;;5060232;28;20429;-67
2023/04/13 06:46:00;;;;;;;1.27;0.60;;;8.00;94.40;;;;;;5062523;28;20431;-67
2023/04/13 06:48:28;;;;;;;1.60;1.10;;;8.00;93.90;;;;;;5059317;28;20487;-67
2023/04/13 06:50:55;;;;;;;1.00;0.50;;;8.10;93.70;;;;;;5058647;28;20510;-66
2023/04/13 06:53:24;;;;;;;1.80;0.90;;;8.20;93.30;;;;;;5055194;28;20440;-68
2023/04/13 06:55:51;;;;;;;1.92;0.50;;;8.30;93.40;;;;;;5060965;28;20438;-67
2023/04/13 06:58:17;;;;;;;1.70;0.40;;;8.30;92.80;;;;;;5056183;28;20574;-67
2023/04/13 07:00:44;;;;;;;1.45;0.50;;;8.30;92.70;;;;;;5062086;28;20431;-67
2023/04/13 07:03:11;;;;;;;1.40;0.50;;;8.40;93.00;;;;;;5063868;28;20878;-67
2023/04/13 07:05:38;;;;;;;1.98;0.60;;;8.60;92.10;;;;;;5056353;28;20431;-67
2023/04/13 07:08:06;;;;;;;1.10;0.52;;;8.60;92.30;;;;;;5063251;28;20534;-68
2023/04/13 07:10:36;;;;;;;0.70;0.50;;;8.60;92.60;;;;;;5061834;28;20431;-67
2023/04/13 07:13:03;;;;;;;1.20;0.50;;;8.60;92.20;;;;;;5054868;28;20425;-68
2023/04/13 07:15:30;;;;;;;1.80;0.55;;;8.60;92.60;;;;;;5063709;28;20455;-67
2023/04/13 07:17:57;;;;;;;1.30;0.50;;;8.60;92.40;;;;;;5058562;28;20441;-66
2023/04/13 07:20:23;;;;;;;1.13;0.52;;;8.70;92.50;;;;;;5065400;28;20412;-67
2023/04/13 07:22:51;;;;;;;1.20;0.63;;;8.90;91.80;;;;;;5063558;28;20423;-66
2023/04/13 07:25:17;;;;;;;1.10;0.70;;;9.00;91.80;;;;;;5063059;28;20868;-67
2023/04/13 07:27:45;;;;;;;1.77;0.50;;;9.00;91.80;;;;;;5064200;28;20450;-69
2023/04/13 07:30:14;;;;;;;2.83;0.98;;;9.00;91.60;;;;;;5063028;28;20886;-70
2023/04/13 07:32:41;;;;;;;1.67;0.70;;;9.00;93.50;;;;;;5063379;28;20458;-70
2023/04/13 07:35:08;;;;;;;2.05;0.70;;;9.10;92.40;;;;;;5061703;28;20456;-69
2023/04/13 07:37:35;;;;;;;1.48;0.73;;;9.20;92.20;;;;;;5054828;28;20433;-71
2023/04/13 07:40:03;;;;;;;1.35;0.60;;;9.30;92.30;;;;;;5062852;28;20454;-71
2023/04/13 07:42:30;;;;;;;0.90;0.70;;;9.30;92.30;;;;;;5061175;28;20450;-70
2023/04/13 07:44:58;;;;;;;1.83;0.80;;;9.40;92.30;;;;;;5064976;28;20449;-71
2023/04/13 07:47:25;;;;;;;2.85;0.85;;;9.70;91.70;;;;;;5057748;28;20454;-70
2023/04/13 07:49:52;;;;;;;1.13;0.70;;;9.80;91.70;;;;;;5056807;28;20870;-70
2023/04/13 07:52:19;;;;;;;1.60;1.00;;;9.80;90.40;;;;;;5064811;28;20461;-70
2023/04/13 07:54:46;;;;;;;1.40;0.80;;;9.80;91.20;;;;;;5062237;28;20431;-70
2023/04/13 07:57:13;;;;;;;1.80;0.90;;;9.80;90.80;;;;;;5063659;28;20427;-70
2023/04/13 07:59:39;;;;;;;2.07;1.20;;;9.90;91.00;;;;;;5064692;28;20487;-71
2023/04/13 08:02:07;;;;;;;3.33;1.00;;;9.90;89.80;;;;;;5063296;28;20717;-72
2023/04/13 08:04:34;;;;;;;10.75;3.03;;;9.90;90.40;;;;;;5066613;28;20447;-72
2023/04/13 08:07:03;;;;;;;8.67;2.43;;;9.90;90.10;;;;;;5061928;28;20471;-72
2023/04/13 08:09:33;;;;;;;4.03;1.10;;;9.80;90.50;;;;;;5056044;28;20479;-72
2023/04/13 08:11:59;;;;;;;2.42;1.00;;;9.80;90.40;;;;;;5063541;28;20888;-72
2023/04/13 08:14:26;;;;;;;2.08;1.20;;;9.60;90.70;;;;;;5062101;28;20441;-73
2023/04/13 08:16:53;;;;;;;3.03;1.10;;;9.50;91.20;;;;;;5062118;28;20431;-72
2023/04/13 08:19:21;;;;;;;3.15;1.23;;;9.40;91.80;;;;;;5066948;28;20423;-72
2023/04/13 08:21:48;;;;;;;2.63;1.40;;;9.30;92.00;;;;;;5062753;28;20547;-72
2023/04/13 08:24:15;;;;;;;3.60;1.50;;;9.30;92.30;;;;;;5062986;28;20450;-72
2023/04/13 08:26:43;;;;;;;1.98;1.05;;;9.30;92.70;;;;;;5060370;28;20445;-72
2023/04/13 08:29:10;;;;;;;2.92;1.20;;;9.40;92.80;;;;;;5065338;28;20852;-72
2023/04/13 08:31:37;;;;;;;3.60;1.52;;;9.50;92.30;;;;;;5069162;28;20523;-71
2023/04/13 08:34:03;;;;;;;2.67;1.20;;;9.50;92.30;;;;;;5068878;28;20539;-72
2023/04/13 08:36:32;;;;;;;5.20;1.65;;;9.50;92.10;;;;;;5064206;28;20447;-72
2023/04/13 08:38:58;;;;;;;6.13;2.20;;;9.50;92.20;;;;;;5063788;28;20448;-72
2023/04/13 08:41:26;;;;;;;5.15;2.05;;;9.40;92.30;;;;;;5069341;28;20427;-72
2023/04/13 08:43:55;;;;;;;4.00;1.67;;;9.30;92.20;;;;;;5064962;28;20644;-71
2023/04/13 08:46:22;;;;;;;3.50;1.50;;;9.30;92.70;;;;;;5069460;28;20443;-72
2023/04/13 08:48:53;;;;;;;5.90;2.00;;;9.40;92.40;;;;;;5068204;28;20439;-72
2023/04/13 08:51:21;;;;;;;5.40;2.10;;;9.50;92.20;;;;;;5061210;28;20516;-72
2023/04/13 08:53:53;;;;;;;4.80;2.10;;;9.50;92.40;;;;;;5063671;28;20902;-71
2023/04/13 08:56:21;;;;;;;4.72;2.00;;;9.60;91.40;;;;;;5057215;28;20440;-72
2023/04/13 08:58:49;;;;;;;5.18;2.42;;;9.60;91.50;;;;;;5057002;28;20916;-72
2023/04/13 09:01:16;;;;;;;4.60;2.20;;;9.60;91.70;;;;;;5056316;28;20921;-72
2023/04/13 09:03:51;;;;;;;5.10;2.50;;;9.60;91.70;;;;;;5059888;28;20946;-72
2023/04/13 09:06:24;;;;;;;6.38;2.40;;;9.60;91.20;;;;;;5059707;28;20515;-72
2023/04/13 09:08:54;;;;;;;5.65;2.17;;;9.70;91.50;;;;;;5065309;28;20423;-72
2023/04/13 09:11:21;;;;;;;6.55;2.20;;;9.80;91.20;;;;;;5060011;28;20441;-71
2023/04/13 09:13:51;;;;;;;7.20;2.10;;;10.00;91.10;;;;;;5062745;28;20424;-72
2023/04/13 09:16:19;;;;;;;7.63;2.50;;;10.10;89.10;;;;;;5063405;28;20995;-72
2023/04/13 09:18:50;;;;;;;6.10;2.00;;;10.10;88.80;;;;;;5058365;28;20488;-72
2023/04/13 09:21:18;;;;;;;6.47;2.42;;;10.10;89.00;;;;;;5063487;28;20918;-72
2023/04/13 09:23:54;;;;;;;4.80;2.10;;;10.00;88.80;;;;;;5063005;28;20463;-71
2023/04/13 09:26:21;;;;;;;5.18;1.90;;;9.90;90.10;;;;;;5061593;28;20436;-72
2023/04/13 09:28:49;;;;;;;6.50;2.60;;;9.90;92.50;;;;;;5054266;28;20437;-72
2023/04/13 09:31:16;;;;;;;6.88;2.55;;;9.80;95.10;;;;;;5057063;28;20431;-72
2023/04/13 09:33:47;;;;;;;10.20;2.85;;;9.60;96.10;;;;;;5056140;28;20515;-71
2023/04/13 09:36:16;;;;;;;5.05;2.35;;;9.50;97.10;;;;;;5064126;28;20427;-71
2023/04/13 09:38:44;;;;;;;5.60;2.60;;;9.40;95.80;;;;;;5058395;28;20427;-71
2023/04/13 09:41:12;;;;;;;6.78;2.47;;;9.50;96.70;;;;;;5060288;28;20455;-71
2023/04/13 09:43:39;;;;;;;5.60;2.55;;;9.60;96.00;;;;;;5053141;28;20433;-70
2023/04/13 09:46:12;;;;;;;7.15;2.70;;;9.70;94.70;;;;;;5060177;28;20427;-71
2023/04/13 09:48:39;;;;;;;5.90;2.83;;;9.90;92.30;;;;;;5058142;28;20433;-71
2023/04/13 09:51:08;;;;;;;7.75;2.90;;;10.00;91.50;;;;;;5060845;28;20915;-69
2023/04/13 09:53:45;;;;;;;5.63;2.42;;;10.10;91.20;;;;;;5057773;28;20428;-71
2023/04/13 09:56:13;;;;;;;11.73;2.90;;;10.30;90.10;;;;;;5052727;28;20435;-70
2023/04/13 09:58:44;;;;;;;5.70;2.60;;;10.40;90.20;;;;;;5059840;28;20450;-71
2023/04/13 10:01:11;;;;;;;4.68;2.10;;;10.60;87.60;;;;;;5062974;28;20509;-71
2023/04/13 10:03:38;;;;;;;6.10;2.20;;;10.80;86.30;;;;;;5063018;28;20435;-72
2023/04/13 10:06:06;;;;;;;5.18;2.30;;;10.80;84.20;;;;;;5056920;28;20435;-71
2023/04/13 10:08:33;;;;;;;6.18;2.20;;;10.70;84.00;;;;;;5062648;28;20532;-70
2023/04/13 10:11:02;;;;;;;7.55;2.25;;;10.60;87.90;;;;;;5060467;28;20801;-71
2023/04/13 10:13:34;;;;;;;5.63;2.63;;;10.50;90.90;;;;;;5057224;28;20572;-71
2023/04/13 10:16:18;;;;;;;7.18;2.40;;;10.40;91.20;;;;;;5062557;28;20443;-71
2023/04/13 10:18:56;;;;;;;6.10;2.90;;;10.30;91.70;;;;;;5060398;28;20878;-71
2023/04/13 10:21:25;;;;;;;4.18;2.10;;;10.40;93.90;;;;;;5057773;28;20487;-71
2023/04/13 10:23:52;;;;;;;6.30;2.40;;;10.40;92.80;;;;;;5060487;28;20557;-71
2023/04/13 10:26:30;;;;;;;7.53;2.92;;;10.50;93.30;;;;;;5055568;28;20433;-67
2023/04/13 10:29:00;;;;;;;8.68;3.20;;;10.60;94.90;;;;;;5060836;28;20901;-67
2023/04/13 10:31:36;;;;;;;9.20;2.90;;;10.60;94.20;;;;;;5063554;28;20415;-67
2023/04/13 10:34:04;;;;;;;4.85;2.25;;;10.50;93.50;;;;;;5058532;28;20427;-67
2023/04/13 10:36:38;;;;;;;6.47;2.88;;;10.80;92.80;;;;;;5056004;28;20477;-68
2023/04/13 10:39:04;;;;;;;7.75;2.88;;;11.50;91.50;;;;;;5051693;28;20526;-67
2023/04/13 10:41:31;;;;;;;6.30;2.40;;;12.10;85.70;;;;;;5061031;28;20474;-67
2023/04/13 10:44:03;;;;;;;7.82;2.60;;;12.40;86.90;;;;;;5055964;28;20428;-67
2023/04/13 10:46:32;;;;;;;5.80;2.22;;;12.30;81.90;;;;;;5055527;28;20510;-67
2023/04/13 10:48:59;;;;;;;6.53;2.90;;;12.20;77.90;;;;;;5060640;28;20431;-67
2023/04/13 10:51:26;;;;;;;6.03;2.23;;;12.20;78.60;;;;;;5060869;28;20530;-67
2023/04/13 10:54:02;;;;;;;6.40;2.60;;;12.30;77.30;;;;;;5051614;28;20887;-67
2023/04/13 10:56:29;;;;;;;6.53;2.70;;;12.10;76.90;;;;;;5053229;28;20450;-67
2023/04/13 10:58:56;;;;;;;5.97;2.50;;;11.90;79.20;;;;;;5055558;28;20490;-68
2023/04/13 11:01:24;;;;;;;6.25;2.35;;;11.80;77.90;;;;;;5053691;28;20910;-67
2023/04/13 11:03:51;;;;;;;6.30;2.47;;;11.80;77.10;;;;;;5058930;28;20797;-68
2023/04/13 11:06:18;;;;;;;5.40;2.58;;;12.00;75.70;;;;;;5057547;28;20437;-69
2023/04/13 11:08:45;;;;;;;7.05;2.63;;;12.30;76.60;;;;;;5052271;28;20450;-69
2023/04/13 11:11:12;;;;;;;4.82;2.30;;;12.70;66.60;;;;;;5055873;28;20552;-69
2023/04/13 11:13:46;;;;;;;5.63;2.58;;;12.70;64.60;;;;;;5058608;28;20446;-68
2023/04/13 11:16:13;;;;;;;5.90;2.30;;;12.70;64.50;;;;;;5059900;28;20925;-68
2023/04/13 11:18:41;;;;;;;4.43;2.25;;;12.70;62.50;;;;;;5059198;28;20454;-67
2023/04/13 11:21:15;;;;;;;4.63;2.40;;;12.60;61.90;;;;;;5060536;28;20431;-67
2023/04/13 11:23:41;;;;;;;4.78;2.20;;;12.60;63.40;;;;;;5061382;28;20486;-67
2023/04/13 11:26:08;;;;;;;6.57;2.60;;;12.80;62.30;;;;;;5051725;28;20789;-67
2023/04/13 11:28:40;;;;;;;5.20;2.20;;;12.80;60.80;;;;;;5054043;28;20902;-68
2023/04/13 11:31:07;;;;;;;5.68;2.80;;;12.50;62.60;;;;;;5061724;28;20451;-67
2023/04/13 11:33:34;;;;;;;6.03;2.47;;;12.40;65.00;;;;;;5054751;28;20905;-70
2023/04/13 11:36:03;;;;;;;5.85;2.30;;;12.30;65.90;;;;;;5055586;28;20527;-68
2023/04/13 11:38:31;;;;;;;7.15;2.60;;;12.10;67.00;;;;;;5049602;28;20433;-69
2023/04/13 11:41:02;;;;;;;5.13;2.45;;;12.00;68.80;;;;;;5056697;28;20526;-67
2023/04/13 11:43:28;;;;;;;7.55;2.58;;;11.90;69.50;;;;;;5059743;28;20416;-68
2023/04/13 11:45:55;;;;;;;5.40;2.40;;;12.10;68.80;;;;;;5060852;28;20485;-68
2023/04/13 11:48:23;;;;;;;6.05;2.40;;;12.70;66.10;;;;;;5058733;28;20861;-66
2023/04/13 11:50:50;;;;;;;5.20;2.40;;;13.20;62.50;;;;;;5061867;28;20427;-71
2023/04/13 11:53:18;;;;;;;5.38;2.13;;;13.60;63.30;;;;;;5060292;28;20438;-69
2023/04/13 11:55:46;;;;;;;5.70;2.20;;;13.90;58.30;;;;;;5057644;28;20689;-68
2023/04/13 11:58:17;;;;;;;7.30;2.58;;;14.00;56.10;;;;;;5056054;28;20431;-70
2023/04/13 12:00:45;;;;;;;7.00;2.60;;;14.00;56.00;;;;;;5059761;28;20459;-68
2023/04/13 12:03:13;;;;;;;5.10;2.38;;;14.00;54.50;;;;;;5049172;28;20508;-69
2023/04/13 12:05:41;;;;;;;5.43;2.30;;;13.90;52.80;;;;;;5059768;28;20431;-68
2023/04/13 12:08:08;;;;;;;4.80;2.17;;;13.80;52.30;;;;;;5061671;28;20603;-71
2023/04/13 12:10:37;;;;;;;5.80;2.28;;;13.70;51.80;;;;;;5060185;28;20428;-70
2023/04/13 12:13:08;;;;;;;6.88;2.10;;;13.80;52.90;;;;;;5062580;28;20466;-68
2023/04/13 12:15:38;;;;;;;4.50;2.08;;;13.90;51.60;;;;;;5060503;28;20514;-70
2023/04/13 12:18:05;;;;;;;4.82;2.30;;;13.90;53.00;;;;;;5060129;28;20455;-69
2023/04/13 12:20:37;;;;;;;6.00;2.25;;;14.00;50.80;;;;;;5065092;28;20423;-69
2023/04/13 12:23:04;;;;;;;5.22;2.10;;;14.20;50.60;;;;;;5059936;28;20802;-68
2023/04/13 12:25:32;;;;;;;5.35;2.20;;;14.20;49.60;;;;;;5060223;28;20531;-67
2023/04/13 12:28:00;;;;;;;6.10;2.50;;;14.10;51.30;;;;;;5063702;28;20789;-67
2023/04/13 12:30:27;;;;;;;4.93;2.17;;;14.10;50.40;;;;;;5063591;28;20868;-66
2023/04/13 12:32:55;;;;;;;6.13;2.10;;;14.40;48.40;;;;;;5063987;22;20438;-68
2023/04/13 12:35:22;;;;;;;5.80;2.38;;;14.70;48.10;;;;;;5053963;28;20442;-68
2023/04/13 12:37:51;;;;;;;4.78;2.00;;;14.70;45.70;;;;;;5050124;28;20428;-67
2023/04/13 12:40:18;;;;;;;4.47;1.90;;;15.00;44.50;;;;;;5062611;28;20456;-68
2023/04/13 12:42:45;;;;;;;4.95;1.80;;;15.20;44.10;;;;;;5063971;28;20440;-68
2023/04/13 12:45:14;;;;;;;4.63;1.65;;;15.80;44.20;;;;;;5058490;28;20414;-68
2023/04/13 12:47:41;;;;;;;5.20;2.15;;;16.30;43.60;;;;;;5052670;28;20444;-69
2023/04/13 12:50:10;;;;;;;3.85;1.98;;;16.60;40.90;;;;;;5044180;28;20452;-69
2023/04/13 12:52:39;;;;;;;3.60;1.80;;;16.30;42.40;;;;;;5056556;28;20441;-70
2023/04/13 12:55:07;;;;;;;3.55;1.73;;;15.90;43.10;;;;;;5063404;28;20413;-68
2023/04/13 12:57:34;;;;;;;3.35;1.70;;;16.00;43.10;;;;;;5069071;28;20433;-72
2023/04/13 13:00:01;;;;;;;3.53;2.00;;;16.10;42.10;;;;;;5079311;28;20493;-72